Time;durP1;ratioP1;P1;durP2;ratioP2;P2;SDS_P1;SDS_P2;PMS_P1;PMS_P2;Temp;Humidity;BMP_temperature;BMP_pressure;BME280_temperature;BME280_humidity;BME280_pressure;Samples;Min_cycle;Max_cycle;Signal;HPM_P1;HPM_P2
2022/07/22 00:00:38;;;;;;;4.65;3.47;;;17.60;99.90;;;;;;5041727;28;20202;-86
2022/07/22 00:03:07;;;;;;;3.85;3.05;;;17.70;99.90;;;;;;5059338;28;20195;-86
2022/07/22 00:05:35;;;;;;;4.00;3.15;;;17.70;99.90;;;;;;5051342;28;20226;-86
2022/07/22 00:08:03;;;;;;;3.70;2.83;;;17.70;99.90;;;;;;5045633;28;20198;-86
2022/07/22 00:10:30;;;;;;;3.88;2.70;;;17.70;99.90;;;;;;5054260;28;20199;-86
2022/07/22 00:12:58;;;;;;;4.57;3.33;;;17.80;99.90;;;;;;5047313;28;20202;-86
2022/07/22 00:15:26;;;;;;;3.65;2.90;;;17.80;99.90;;;;;;5063191;28;20226;-86
2022/07/22 00:17:53;;;;;;;4.70;3.05;;;17.90;99.90;;;;;;5045568;28;20198;-85
2022/07/22 00:20:22;;;;;;;3.22;2.92;;;17.80;99.90;;;;;;5046262;28;20205;-86
2022/07/22 00:22:50;;;;;;;3.33;2.70;;;17.90;99.90;;;;;;5055209;28;20202;-85
2022/07/22 00:25:18;;;;;;;3.55;2.95;;;17.90;99.90;;;;;;5044641;28;20222;-85
2022/07/22 00:27:45;;;;;;;4.85;3.78;;;17.90;99.90;;;;;;5032693;28;20202;-86
2022/07/22 00:30:13;;;;;;;4.13;3.08;;;17.90;99.90;;;;;;5029793;28;20549;-86
2022/07/22 00:32:41;;;;;;;4.50;3.55;;;17.90;99.90;;;;;;5035201;28;20260;-85
2022/07/22 00:35:09;;;;;;;4.13;3.80;;;17.90;99.90;;;;;;5045906;28;20226;-87
2022/07/22 00:37:38;;;;;;;4.95;3.88;;;17.90;99.90;;;;;;5032908;28;20209;-86
2022/07/22 00:40:06;;;;;;;4.45;3.60;;;17.90;99.90;;;;;;5031981;28;20198;-87
2022/07/22 00:42:34;;;;;;;4.97;3.78;;;17.90;99.90;;;;;;5050553;28;20563;-86
2022/07/22 00:45:02;;;;;;;4.88;3.15;;;17.90;99.90;;;;;;5033776;28;20602;-86
2022/07/22 00:47:30;;;;;;;4.40;3.38;;;18.00;99.90;;;;;;5049227;28;20537;-86
2022/07/22 00:49:58;;;;;;;5.78;3.25;;;18.00;99.90;;;;;;5044694;28;20751;-85
2022/07/22 00:52:26;;;;;;;4.32;3.05;;;17.90;99.90;;;;;;5043971;28;20195;-86
2022/07/22 00:54:57;;;;;;;4.82;3.58;;;17.80;99.90;;;;;;5050288;28;20219;-86
2022/07/22 00:57:24;;;;;;;2.95;2.67;;;17.90;99.90;;;;;;5028981;28;20199;-86
2022/07/22 00:59:52;;;;;;;3.47;3.10;;;17.90;99.90;;;;;;5053857;28;20213;-86
2022/07/22 01:02:19;;;;;;;4.00;2.90;;;17.90;99.90;;;;;;5030661;28;20203;-85
2022/07/22 01:04:47;;;;;;;3.53;3.20;;;17.80;99.90;;;;;;5026641;28;20218;-86
2022/07/22 01:07:15;;;;;;;3.15;2.90;;;17.90;99.90;;;;;;5043466;28;20206;-86
2022/07/22 01:09:44;;;;;;;3.45;3.15;;;18.00;99.90;;;;;;5051485;28;20195;-86
2022/07/22 01:12:13;;;;;;;4.45;3.15;;;18.10;99.90;;;;;;5024538;28;20202;-86
2022/07/22 01:14:41;;;;;;;3.70;3.33;;;18.10;99.90;;;;;;5052891;28;20225;-87
2022/07/22 01:17:09;;;;;;;3.60;3.25;;;18.10;99.90;;;;;;5033105;28;20199;-86
2022/07/22 01:19:37;;;;;;;3.30;3.00;;;18.10;99.90;;;;;;5027048;28;20198;-86
2022/07/22 01:22:07;;;;;;;4.15;3.13;;;17.90;99.90;;;;;;5032311;28;20206;-86
2022/07/22 01:24:35;;;;;;;4.65;2.78;;;17.80;99.90;;;;;;5045090;28;20211;-86
2022/07/22 01:27:02;;;;;;;3.38;3.08;;;17.80;99.90;;;;;;5030442;28;20205;-86
2022/07/22 01:29:30;;;;;;;3.10;2.50;;;17.90;99.90;;;;;;5045425;28;20660;-86
2022/07/22 01:31:58;;;;;;;4.07;2.40;;;17.90;99.90;;;;;;5036166;28;20210;-86
2022/07/22 01:34:26;;;;;;;4.47;2.40;;;17.90;99.90;;;;;;5025791;28;20602;-86
2022/07/22 01:37:00;;;;;;;6.40;2.53;;;17.70;99.90;;;;;;5039477;28;20194;-86
2022/07/22 01:39:29;;;;;;;2.47;2.05;;;17.70;99.90;;;;;;5047154;28;20195;-85
2022/07/22 01:41:57;;;;;;;3.65;2.53;;;17.70;99.90;;;;;;5044437;28;20209;-85
2022/07/22 01:44:24;;;;;;;3.28;2.10;;;17.70;99.90;;;;;;5043766;28;20222;-85
2022/07/22 01:46:53;;;;;;;3.40;2.28;;;17.80;99.90;;;;;;5029036;28;20202;-86
2022/07/22 01:49:23;;;;;;;4.03;2.63;;;17.80;99.90;;;;;;5033658;28;20191;-86
2022/07/22 01:51:51;;;;;;;3.45;2.22;;;17.80;99.90;;;;;;5043443;28;20213;-86
2022/07/22 01:54:19;;;;;;;4.38;2.30;;;17.90;99.90;;;;;;5033101;28;20227;-86
2022/07/22 01:56:48;;;;;;;4.53;2.50;;;17.90;99.90;;;;;;5043333;28;20195;-86
2022/07/22 01:59:16;;;;;;;2.70;2.40;;;18.00;99.90;;;;;;5029554;28;20190;-86
2022/07/22 02:01:43;;;;;;;3.90;2.70;;;17.80;99.90;;;;;;5032573;28;20653;-86
2022/07/22 02:04:11;;;;;;;3.05;2.83;;;17.80;99.90;;;;;;5033918;28;20249;-86
2022/07/22 02:06:39;;;;;;;5.45;2.92;;;17.80;99.90;;;;;;5025947;28;20198;-86
2022/07/22 02:09:10;;;;;;;4.85;3.00;;;17.80;99.90;;;;;;5034229;28;20644;-86
2022/07/22 02:11:44;;;;;;;4.97;2.50;;;17.70;99.90;;;;;;5035877;28;20214;-85
2022/07/22 02:14:16;;;;;;;5.72;2.88;;;17.70;99.90;;;;;;5041847;28;20221;-86
2022/07/22 02:16:44;;;;;;;5.75;2.85;;;17.70;99.90;;;;;;5040214;28;20199;-85
2022/07/22 02:19:13;;;;;;;3.28;2.83;;;17.70;99.90;;;;;;5048305;28;20201;-85
2022/07/22 02:21:40;;;;;;;3.92;2.53;;;17.60;99.90;;;;;;5030731;28;20206;-86
2022/07/22 02:24:08;;;;;;;3.80;2.78;;;17.60;99.90;;;;;;5051643;28;20214;-86
2022/07/22 02:26:36;;;;;;;2.97;2.55;;;17.70;99.90;;;;;;5031185;28;20229;-86
2022/07/22 02:29:04;;;;;;;5.68;2.75;;;17.70;99.90;;;;;;5034561;28;20206;-86
2022/07/22 02:31:33;;;;;;;5.05;2.28;;;17.70;99.90;;;;;;5045580;28;20214;-86
2022/07/22 02:34:00;;;;;;;3.35;2.63;;;17.80;99.90;;;;;;5060628;28;20217;-85
2022/07/22 02:36:30;;;;;;;3.47;2.58;;;17.90;99.90;;;;;;5058729;28;20190;-86
2022/07/22 02:38:58;;;;;;;2.75;2.55;;;17.80;99.90;;;;;;5052466;28;20202;-86
2022/07/22 02:41:26;;;;;;;6.18;2.85;;;17.80;99.90;;;;;;5051941;28;20174;-86
2022/07/22 02:43:57;;;;;;;5.32;3.17;;;17.80;99.90;;;;;;5060871;28;20227;-86
2022/07/22 02:46:25;;;;;;;3.67;2.92;;;17.70;99.90;;;;;;5039215;28;20680;-86
2022/07/22 02:48:55;;;;;;;3.90;3.00;;;17.70;99.90;;;;;;5043491;28;20195;-86
2022/07/22 02:51:23;;;;;;;4.70;2.83;;;17.70;99.90;;;;;;5024341;28;20195;-86
2022/07/22 02:53:51;;;;;;;5.25;2.85;;;17.60;99.90;;;;;;5032769;28;20222;-86
2022/07/22 02:56:20;;;;;;;3.83;2.28;;;17.70;99.90;;;;;;5044316;28;20206;-86
2022/07/22 02:58:47;;;;;;;4.47;2.88;;;17.70;99.90;;;;;;5045285;28;20207;-86
2022/07/22 03:01:15;;;;;;;3.72;2.60;;;17.70;99.90;;;;;;5027256;28;20195;-86
2022/07/22 03:03:50;;;;;;;5.13;3.00;;;17.70;99.90;;;;;;5041753;28;20226;-85
2022/07/22 03:06:20;;;;;;;4.60;3.15;;;17.70;99.90;;;;;;5042331;28;20199;-85
2022/07/22 03:09:02;;;;;;;6.78;3.13;;;17.70;99.90;;;;;;5025065;28;20209;-86
2022/07/22 03:11:32;;;;;;;3.72;3.22;;;17.70;99.90;;;;;;5051710;28;20196;-86
2022/07/22 03:14:00;;;;;;;6.90;3.25;;;17.70;99.90;;;;;;5040591;28;20214;-86
2022/07/22 03:16:28;;;;;;;6.15;2.92;;;17.60;99.90;;;;;;5043309;28;20191;-86
2022/07/22 03:18:57;;;;;;;4.28;3.50;;;17.70;99.90;;;;;;5040910;28;20191;-86
2022/07/22 03:21:26;;;;;;;6.25;3.53;;;17.70;99.90;;;;;;5043919;28;20198;-86
2022/07/22 03:23:55;;;;;;;5.53;3.50;;;17.60;99.90;;;;;;5043194;28;20229;-86
2022/07/22 03:26:25;;;;;;;6.03;3.83;;;17.70;99.90;;;;;;5045021;28;20207;-87
2022/07/22 03:28:53;;;;;;;5.78;3.35;;;17.60;99.90;;;;;;5044580;28;20206;-86
2022/07/22 03:31:20;;;;;;;6.75;3.55;;;17.50;99.90;;;;;;5043910;28;20207;-86
2022/07/22 03:33:48;;;;;;;7.38;3.75;;;17.50;99.90;;;;;;5056128;28;20233;-86
2022/07/22 03:36:16;;;;;;;6.32;3.83;;;17.50;99.90;;;;;;5060914;28;20193;-86
2022/07/22 03:38:47;;;;;;;7.80;4.30;;;17.60;99.90;;;;;;5061838;28;20194;-86
2022/07/22 03:41:15;;;;;;;4.07;3.45;;;17.60;99.90;;;;;;5046205;28;20198;-87
2022/07/22 03:43:43;;;;;;;7.65;3.38;;;17.60;99.90;;;;;;5041861;28;20223;-86
2022/07/22 03:46:10;;;;;;;4.50;2.83;;;17.60;99.90;;;;;;5045365;28;20229;-86
2022/07/22 03:48:40;;;;;;;3.90;2.60;;;17.60;99.90;;;;;;5038711;28;20563;-84
2022/07/22 03:51:07;;;;;;;6.88;2.83;;;18.00;99.90;;;;;;5033823;28;20195;-84
2022/07/22 03:53:35;;;;;;;4.35;2.63;;;18.30;99.90;;;;;;5056116;28;20206;-84
2022/07/22 03:56:06;;;;;;;5.93;2.63;;;18.60;99.90;;;;;;5043183;28;20198;-84
2022/07/22 03:58:33;;;;;;;4.65;2.70;;;18.40;99.90;;;;;;5035599;28;20209;-84
2022/07/22 04:01:01;;;;;;;4.40;2.40;;;18.30;99.90;;;;;;5035588;28;20202;-84
2022/07/22 04:03:29;;;;;;;6.32;2.60;;;18.10;99.90;;;;;;5033666;28;20197;-84
2022/07/22 04:06:08;;;;;;;3.75;2.33;;;18.10;99.90;;;;;;5027913;28;20221;-85
2022/07/22 04:08:46;;;;;;;4.45;2.53;;;18.20;99.90;;;;;;5032263;28;20198;-84
2022/07/22 04:11:16;;;;;;;7.03;2.72;;;18.20;99.90;;;;;;5032341;28;20210;-83
2022/07/22 04:13:44;;;;;;;3.63;2.40;;;18.30;99.90;;;;;;5038699;28;20216;-84
2022/07/22 04:16:11;;;;;;;4.40;2.60;;;18.30;99.90;;;;;;5042009;28;20667;-84
2022/07/22 04:18:46;;;;;;;5.15;2.67;;;18.20;99.90;;;;;;5034867;28;20202;-84
2022/07/22 04:21:14;;;;;;;4.05;2.33;;;18.20;99.90;;;;;;5039090;28;20194;-86
2022/07/22 04:23:55;;;;;;;5.32;2.95;;;18.00;99.90;;;;;;5053831;28;20233;-84
2022/07/22 04:26:30;;;;;;;5.38;3.33;;;18.20;99.90;;;;;;5044603;28;20221;-84
2022/07/22 04:28:57;;;;;;;6.53;4.07;;;18.00;99.90;;;;;;5053361;28;20206;-84
2022/07/22 04:31:25;;;;;;;7.20;4.60;;;18.10;99.90;;;;;;5039027;28;20205;-84
2022/07/22 04:34:00;;;;;;;9.18;5.50;;;17.90;99.90;;;;;;5039096;28;20240;-84
2022/07/22 04:36:28;;;;;;;7.03;5.05;;;18.10;99.90;;;;;;5055559;28;20193;-84
2022/07/22 04:38:56;;;;;;;7.75;4.65;;;17.90;99.90;;;;;;5054310;28;20203;-83
2022/07/22 04:41:23;;;;;;;6.82;4.60;;;18.00;99.90;;;;;;5035392;28;20198;-83
2022/07/22 04:43:53;;;;;;;7.68;4.88;;;18.00;99.90;;;;;;5050644;28;20226;-84
2022/07/22 04:46:24;;;;;;;8.43;4.75;;;18.00;99.90;;;;;;5046396;28;20218;-84
2022/07/22 04:48:52;;;;;;;7.00;4.53;;;18.00;99.90;;;;;;5052207;28;20202;-83
2022/07/22 04:51:20;;;;;;;5.97;3.90;;;18.00;99.90;;;;;;5042469;28;20206;-84
2022/07/22 04:53:49;;;;;;;6.25;4.47;;;18.10;99.90;;;;;;5026837;28;20223;-84
2022/07/22 04:56:22;;;;;;;7.10;4.72;;;18.40;99.90;;;;;;5044702;28;20191;-83
2022/07/22 04:58:53;;;;;;;5.50;3.63;;;18.60;99.90;;;;;;5032490;28;20210;-83
2022/07/22 05:01:23;;;;;;;7.07;4.15;;;18.50;99.90;;;;;;5030686;28;20198;-84
2022/07/22 05:03:52;;;;;;;7.70;4.30;;;18.70;99.90;;;;;;5034771;28;20225;-84
2022/07/22 05:06:20;;;;;;;6.45;4.50;;;18.70;99.90;;;;;;5041883;28;20215;-84
2022/07/22 05:08:47;;;;;;;5.05;3.40;;;18.60;99.90;;;;;;5030064;28;20207;-84
2022/07/22 05:11:15;;;;;;;6.30;3.30;;;18.30;99.90;;;;;;5037427;28;20225;-84
2022/07/22 05:13:43;;;;;;;5.55;3.30;;;18.30;99.90;;;;;;5047837;28;20199;-84
2022/07/22 05:16:13;;;;;;;6.28;3.40;;;18.30;99.90;;;;;;5038931;28;20195;-83
2022/07/22 05:18:41;;;;;;;4.25;3.40;;;18.50;99.90;;;;;;5037498;28;20198;-84
2022/07/22 05:21:11;;;;;;;8.15;3.45;;;18.50;99.90;;;;;;5036860;28;20191;-84
2022/07/22 05:23:39;;;;;;;5.32;3.60;;;18.40;99.90;;;;;;5055265;28;20203;-86
2022/07/22 05:26:08;;;;;;;4.88;2.85;;;18.10;99.90;;;;;;5027986;28;20211;-84
2022/07/22 05:28:35;;;;;;;5.97;2.97;;;18.30;99.90;;;;;;5041621;28;20194;-83
2022/07/22 05:31:03;;;;;;;4.75;3.20;;;18.70;99.90;;;;;;5051410;28;20202;-83
2022/07/22 05:33:35;;;;;;;4.65;2.60;;;19.00;99.90;;;;;;5043213;28;20651;-84
2022/07/22 05:36:33;;;;;;;6.22;3.00;;;19.20;99.90;;;;;;5062635;28;20206;-82
2022/07/22 05:39:01;;;;;;;3.90;2.53;;;19.20;99.90;;;;;;5058829;28;20216;-83
2022/07/22 05:41:29;;;;;;;5.50;3.13;;;19.00;99.90;;;;;;5039642;28;20214;-84
2022/07/22 05:43:57;;;;;;;3.85;2.90;;;19.00;99.90;;;;;;5059960;28;20226;-83
2022/07/22 05:46:24;;;;;;;3.92;2.58;;;19.00;99.90;;;;;;5064687;28;20230;-83
2022/07/22 05:48:54;;;;;;;4.40;2.33;;;19.00;99.90;;;;;;5039195;28;20209;-84
2022/07/22 05:51:23;;;;;;;4.85;3.40;;;19.00;99.90;;;;;;5042374;28;20187;-84
2022/07/22 05:53:50;;;;;;;3.75;2.10;;;18.80;99.90;;;;;;5035478;28;20230;-82
2022/07/22 05:56:18;;;;;;;4.45;2.40;;;19.00;99.90;;;;;;5037730;28;20262;-82
2022/07/22 05:58:53;;;;;;;4.80;3.05;;;19.00;99.90;;;;;;5030174;28;20203;-82
2022/07/22 06:01:20;;;;;;;9.25;3.42;;;19.00;99.90;;;;;;5055793;28;20197;-85
2022/07/22 06:03:48;;;;;;;8.38;2.65;;;19.20;99.90;;;;;;5042480;28;20222;-83
2022/07/22 06:06:17;;;;;;;4.97;2.33;;;19.10;99.90;;;;;;5037720;28;20206;-84
2022/07/22 06:08:47;;;;;;;4.18;2.40;;;19.20;99.90;;;;;;5032068;28;20202;-83
2022/07/22 06:11:15;;;;;;;9.55;2.10;;;19.30;99.90;;;;;;5031412;28;20202;-83
2022/07/22 06:13:43;;;;;;;4.93;2.58;;;19.40;99.90;;;;;;5029072;28;20210;-82
2022/07/22 06:16:11;;;;;;;4.50;2.42;;;19.50;99.90;;;;;;5038028;28;20199;-82
2022/07/22 06:18:52;;;;;;;8.10;4.03;;;19.60;99.90;;;;;;5029754;28;20202;-83
2022/07/22 06:21:21;;;;;;;7.07;3.17;;;19.70;99.90;;;;;;5037461;28;20552;-81
2022/07/22 06:23:48;;;;;;;12.88;3.92;;;19.60;99.90;;;;;;5048539;28;20226;-83
2022/07/22 06:26:17;;;;;;;8.40;4.22;;;19.60;99.90;;;;;;5029692;28;20222;-83
2022/07/22 06:28:44;;;;;;;4.60;2.67;;;19.50;99.90;;;;;;5034089;28;20216;-86
2022/07/22 06:31:12;;;;;;;7.38;3.80;;;19.60;99.90;;;;;;5033387;28;20206;-80
2022/07/22 06:33:39;;;;;;;3.47;2.17;;;19.70;99.90;;;;;;5044303;28;20652;-82
2022/07/22 06:36:08;;;;;;;6.75;2.15;;;19.70;99.90;;;;;;5043692;28;20202;-81
2022/07/22 06:38:39;;;;;;;5.57;2.15;;;19.70;99.90;;;;;;5033053;28;20195;-82
2022/07/22 06:41:31;;;;;;;3.78;1.80;;;19.50;99.90;;;;;;5043396;28;20203;-81
2022/07/22 06:44:20;;;;;;;4.07;1.40;;;19.20;99.90;;;;;;5037236;28;20237;-83
2022/07/22 06:47:01;;;;;;;2.28;1.42;;;19.10;99.90;;;;;;5046929;28;20206;-83
2022/07/22 06:49:30;;;;;;;2.88;1.70;;;19.50;99.90;;;;;;5037454;28;20198;-82
2022/07/22 06:51:57;;;;;;;2.88;1.55;;;19.70;99.90;;;;;;5056648;28;20214;-81
2022/07/22 06:54:26;;;;;;;3.33;1.65;;;19.60;99.90;;;;;;5042371;28;20229;-84
2022/07/22 06:56:57;;;;;;;3.22;1.77;;;19.40;99.90;;;;;;5050132;28;20203;-84
2022/07/22 06:59:30;;;;;;;4.85;2.15;;;19.20;99.90;;;;;;5041803;28;20194;-85
2022/07/22 07:01:58;;;;;;;3.08;1.50;;;19.00;99.90;;;;;;5060752;28;20210;-84
2022/07/22 07:04:26;;;;;;;3.92;1.60;;;19.10;99.90;;;;;;5049105;28;20318;-84
2022/07/22 07:06:54;;;;;;;3.53;1.55;;;19.20;99.90;;;;;;5044375;28;20229;-84
2022/07/22 07:09:36;;;;;;;1.98;1.27;;;19.30;99.90;;;;;;5059124;28;20203;-84
2022/07/22 07:12:13;;;;;;;1.85;1.30;;;19.10;99.90;;;;;;5061031;28;20214;-84
2022/07/22 07:14:59;;;;;;;3.58;1.70;;;18.80;99.90;;;;;;5066145;28;20213;-84
2022/07/22 07:17:26;;;;;;;2.03;1.67;;;19.00;99.90;;;;;;5053978;28;20195;-84
2022/07/22 07:19:54;;;;;;;3.47;1.60;;;19.00;99.90;;;;;;5057620;28;20195;-84
2022/07/22 07:22:21;;;;;;;3.08;1.60;;;18.90;99.90;;;;;;5041647;28;20206;-84
2022/07/22 07:24:51;;;;;;;5.10;1.80;;;18.90;99.90;;;;;;5030147;28;20687;-84
2022/07/22 07:27:19;;;;;;;4.45;2.17;;;18.60;99.90;;;;;;5038170;28;20210;-84
2022/07/22 07:29:50;;;;;;;3.20;2.10;;;18.70;99.90;;;;;;5032522;28;20202;-84
2022/07/22 07:32:18;;;;;;;2.35;1.98;;;19.00;99.90;;;;;;5043272;28;20194;-84
2022/07/22 07:34:45;;;;;;;2.47;1.85;;;19.10;99.90;;;;;;5045810;28;20224;-84
2022/07/22 07:37:13;;;;;;;3.25;1.83;;;19.20;99.90;;;;;;5040599;28;20197;-85
2022/07/22 07:39:40;;;;;;;4.10;2.05;;;19.20;99.90;;;;;;5040899;28;20202;-84
2022/07/22 07:42:10;;;;;;;2.40;2.20;;;19.10;99.90;;;;;;5025781;28;20203;-84
2022/07/22 07:44:38;;;;;;;3.33;1.98;;;18.90;99.90;;;;;;5058382;28;20221;-84
2022/07/22 07:47:06;;;;;;;2.50;1.70;;;19.00;99.90;;;;;;5065279;28;20198;-84
2022/07/22 07:49:34;;;;;;;2.60;1.80;;;19.10;99.90;;;;;;5042111;28;20213;-84
2022/07/22 07:52:01;;;;;;;3.28;2.10;;;19.10;99.90;;;;;;5037616;28;20206;-84
2022/07/22 07:54:29;;;;;;;4.68;2.63;;;18.90;99.90;;;;;;5036644;28;20229;-83
2022/07/22 07:56:58;;;;;;;3.60;2.35;;;19.00;99.90;;;;;;5052718;28;20709;-85
2022/07/22 07:59:27;;;;;;;4.40;2.92;;;19.00;99.90;;;;;;5031616;28;20210;-82
2022/07/22 08:01:54;;;;;;;6.32;3.30;;;19.00;99.90;;;;;;5038184;28;20202;-84
2022/07/22 08:04:23;;;;;;;4.40;3.25;;;19.00;99.90;;;;;;5038210;28;20228;-84
2022/07/22 08:06:50;;;;;;;4.93;3.35;;;19.00;99.90;;;;;;5028412;28;20202;-85
2022/07/22 08:09:18;;;;;;;3.58;2.95;;;19.10;99.90;;;;;;5043952;28;20214;-84
2022/07/22 08:11:46;;;;;;;3.63;2.60;;;19.00;99.90;;;;;;5066026;28;20203;-84
2022/07/22 08:14:34;;;;;;;5.30;3.13;;;19.10;99.90;;;;;;5074298;28;20218;-85
2022/07/22 08:17:20;;;;;;;3.67;3.20;;;19.10;99.90;;;;;;5066750;28;20209;-85
2022/07/22 08:19:47;;;;;;;4.28;2.58;;;19.10;99.90;;;;;;5045494;28;20369;-85
2022/07/22 08:22:15;;;;;;;3.78;3.00;;;19.00;99.90;;;;;;5044846;28;20213;-85
2022/07/22 08:24:44;;;;;;;4.22;2.88;;;19.00;99.90;;;;;;5038159;28;20210;-84
2022/07/22 08:27:15;;;;;;;6.05;3.22;;;18.90;99.90;;;;;;5046719;28;20190;-85
2022/07/22 08:29:45;;;;;;;5.30;3.10;;;19.10;99.90;;;;;;5049373;28;20209;-85
2022/07/22 08:32:12;;;;;;;3.75;3.45;;;19.00;99.90;;;;;;5061116;28;20207;-84
2022/07/22 08:34:40;;;;;;;4.70;4.00;;;19.10;99.90;;;;;;5049176;28;20251;-85
2022/07/22 08:37:08;;;;;;;7.22;4.82;;;18.90;99.90;;;;;;5051614;28;20205;-85
2022/07/22 08:39:36;;;;;;;5.57;4.47;;;18.90;99.90;;;;;;5064099;28;20205;-84
2022/07/22 08:42:04;;;;;;;5.75;4.88;;;19.10;99.90;;;;;;5065204;28;20182;-85
2022/07/22 08:44:32;;;;;;;5.18;4.68;;;19.00;99.90;;;;;;5034473;28;20233;-82
2022/07/22 08:47:02;;;;;;;5.22;3.95;;;19.00;99.90;;;;;;5028430;28;20206;-82
2022/07/22 08:49:52;;;;;;;5.00;4.10;;;19.20;99.90;;;;;;5045609;28;20191;-83
2022/07/22 08:52:32;;;;;;;4.25;3.58;;;19.30;99.90;;;;;;5044319;28;20213;-83
2022/07/22 08:54:59;;;;;;;6.05;4.30;;;19.60;99.90;;;;;;5033068;28;20219;-83
2022/07/22 08:57:27;;;;;;;5.93;4.63;;;19.80;99.90;;;;;;5034401;28;20199;-84
2022/07/22 08:59:57;;;;;;;6.30;4.32;;;19.90;99.90;;;;;;5051465;28;20202;-82
2022/07/22 09:02:26;;;;;;;5.68;4.22;;;19.70;99.90;;;;;;5035424;28;20656;-83
2022/07/22 09:05:02;;;;;;;5.57;4.38;;;19.90;99.90;;;;;;5030576;28;20233;-84
2022/07/22 09:07:35;;;;;;;5.35;4.63;;;19.30;99.90;;;;;;5034898;28;20189;-88
2022/07/22 09:10:10;;;;;;;4.55;4.13;;;19.30;99.90;;;;;;5043218;28;20209;-85
2022/07/22 09:13:05;;;;;;;5.60;4.68;;;19.30;99.90;;;;;;5026651;28;20709;-85
2022/07/22 09:15:56;;;;;;;6.28;4.93;;;19.30;99.90;;;;;;5052203;28;20221;-82
2022/07/22 09:18:54;;;;;;;8.13;4.88;;;19.10;99.90;;;;;;5051790;28;20203;-85
2022/07/22 09:21:30;;;;;;;5.57;4.30;;;19.30;99.90;;;;;;5037768;28;20202;-84
2022/07/22 09:24:34;;;;;;;5.65;4.18;;;19.80;99.90;;;;;;5053733;28;20233;-85
2022/07/22 09:27:28;;;;;;;6.00;4.60;;;19.60;99.90;;;;;;5055488;28;20194;-84
2022/07/22 09:30:16;;;;;;;6.55;4.57;;;19.40;99.90;;;;;;5059422;28;20261;-85
2022/07/22 09:32:56;;;;;;;8.52;6.05;;;19.70;99.90;;;;;;5054915;28;20188;-85
2022/07/22 09:35:42;;;;;;;6.15;5.47;;;19.40;99.90;;;;;;5034853;28;20222;-83
2022/07/22 09:38:11;;;;;;;6.57;5.88;;;19.20;99.90;;;;;;5033306;28;20205;-83
2022/07/22 09:40:41;;;;;;;7.93;7.13;;;19.20;99.90;;;;;;5053506;28;20202;-86
2022/07/22 09:43:14;;;;;;;7.47;6.68;;;19.20;99.90;;;;;;5041902;28;20198;-84
2022/07/22 09:45:48;;;;;;;9.48;7.57;;;19.30;99.90;;;;;;5035394;28;20226;-84
2022/07/22 09:48:19;;;;;;;8.27;7.35;;;19.40;99.90;;;;;;5040758;28;20217;-84
2022/07/22 09:50:57;;;;;;;9.20;7.35;;;19.40;99.90;;;;;;5036193;28;20210;-83
2022/07/22 09:53:38;;;;;;;8.05;7.07;;;19.40;99.90;;;;;;5067869;28;20202;-83
2022/07/22 09:56:12;;;;;;;7.72;6.93;;;19.40;99.90;;;;;;5039654;28;20194;-84
2022/07/22 09:58:40;;;;;;;10.95;7.22;;;19.50;99.90;;;;;;5046848;28;20203;-84
2022/07/22 10:01:18;;;;;;;9.93;7.57;;;19.30;99.90;;;;;;5040098;28;20207;-83
2022/07/22 10:03:49;;;;;;;9.63;8.57;;;19.40;99.90;;;;;;5054866;28;20205;-84
2022/07/22 10:06:18;;;;;;;8.35;7.45;;;19.40;99.90;;;;;;5058068;28;20206;-83
2022/07/22 10:08:46;;;;;;;9.73;8.75;;;19.20;99.90;;;;;;5037543;28;20203;-83
2022/07/22 10:11:14;;;;;;;8.73;7.75;;;19.40;99.90;;;;;;5041541;28;20198;-84
2022/07/22 10:13:43;;;;;;;9.73;8.77;;;19.60;99.90;;;;;;5043799;28;20205;-83
2022/07/22 10:16:15;;;;;;;13.90;11.05;;;20.10;99.90;;;;;;5045105;28;20182;-83
2022/07/22 10:18:46;;;;;;;9.20;8.27;;;20.10;99.90;;;;;;5064210;28;20186;-84
2022/07/22 10:21:16;;;;;;;10.10;9.10;;;20.10;99.90;;;;;;5062814;28;20203;-84
2022/07/22 10:24:11;;;;;;;11.48;9.95;;;20.10;99.90;;;;;;5053695;28;20203;-81
2022/07/22 10:26:52;;;;;;;10.73;9.10;;;20.10;99.90;;;;;;5038737;28;20205;-84
2022/07/22 10:29:31;;;;;;;10.82;9.73;;;19.60;99.90;;;;;;5047525;28;21074;-83
2022/07/22 10:32:27;;;;;;;12.63;10.45;;;19.90;99.90;;;;;;5044972;28;20231;-84
2022/07/22 10:35:23;;;;;;;11.02;9.93;;;20.00;99.90;;;;;;4995623;28;20627;-81
2022/07/22 10:37:58;;;;;;;12.13;10.93;;;19.90;99.90;;;;;;5053296;28;20198;-82
2022/07/22 10:40:29;;;;;;;12.75;11.55;;;19.90;99.90;;;;;;5060448;28;20186;-81
2022/07/22 10:43:09;;;;;;;13.10;11.85;;;19.90;99.90;;;;;;5059644;28;20190;-81
2022/07/22 10:45:39;;;;;;;12.73;11.18;;;20.10;99.90;;;;;;5046643;28;20230;-81
2022/07/22 10:48:09;;;;;;;12.73;11.50;;;20.20;99.90;;;;;;5055079;28;20199;-82
2022/07/22 10:50:45;;;;;;;13.15;11.95;;;20.30;99.90;;;;;;5039069;28;20260;-81
2022/07/22 10:53:15;;;;;;;13.07;10.93;;;20.50;99.90;;;;;;5043077;28;20201;-83
2022/07/22 10:56:04;;;;;;;14.48;12.43;;;20.40;99.90;;;;;;5071289;28;20240;-81
2022/07/22 10:58:48;;;;;;;12.63;11.45;;;20.40;99.90;;;;;;5063233;28;20198;-82
2022/07/22 11:01:19;;;;;;;12.40;11.20;;;20.70;99.90;;;;;;5052890;28;20674;-82
2022/07/22 11:03:47;;;;;;;12.43;11.13;;;20.80;99.90;;;;;;5066269;28;20198;-82
2022/07/22 11:06:21;;;;;;;12.68;11.35;;;20.90;99.90;;;;;;5059156;28;20211;-81
2022/07/22 11:08:52;;;;;;;11.85;10.65;;;20.90;99.90;;;;;;5041378;28;20214;-81
2022/07/22 11:11:50;;;;;;;12.15;10.85;;;20.70;99.90;;;;;;5064608;28;20202;-81
2022/07/22 11:14:26;;;;;;;12.27;11.18;;;20.90;99.90;;;;;;5053005;28;20214;-81
2022/07/22 11:16:55;;;;;;;13.10;11.73;;;20.90;99.90;;;;;;5035145;28;20562;-81
2022/07/22 11:19:25;;;;;;;16.15;12.27;;;20.60;99.90;;;;;;5047957;28;20553;-81
2022/07/22 11:21:54;;;;;;;14.07;12.43;;;20.70;99.90;;;;;;5031819;28;20202;-83
2022/07/22 11:24:22;;;;;;;13.48;12.15;;;20.80;99.90;;;;;;5038424;28;20222;-81
2022/07/22 11:26:52;;;;;;;11.73;10.55;;;20.80;99.90;;;;;;5035325;28;20202;-80
2022/07/22 11:29:27;;;;;;;13.15;11.85;;;20.40;99.90;;;;;;5055063;28;20209;-82
2022/07/22 11:31:55;;;;;;;14.18;12.15;;;20.70;99.90;;;;;;5040521;28;20215;-82
2022/07/22 11:34:24;;;;;;;14.27;11.77;;;20.60;99.90;;;;;;5036586;28;20602;-81
2022/07/22 11:36:55;;;;;;;14.38;12.98;;;20.60;99.90;;;;;;5054139;28;20202;-82
2022/07/22 11:39:25;;;;;;;14.35;12.73;;;20.40;99.90;;;;;;5044046;28;20199;-82
2022/07/22 11:41:56;;;;;;;14.65;12.52;;;20.50;99.90;;;;;;5059293;28;20200;-82
2022/07/22 11:44:26;;;;;;;14.60;11.90;;;20.40;99.90;;;;;;5046060;28;20233;-82
2022/07/22 11:46:58;;;;;;;14.85;13.35;;;20.30;99.90;;;;;;5059327;28;20200;-81
2022/07/22 11:49:27;;;;;;;13.93;12.55;;;20.40;99.90;;;;;;5041773;28;20210;-82
2022/07/22 11:51:55;;;;;;;16.23;13.55;;;20.60;99.90;;;;;;5058944;28;20202;-82
2022/07/22 11:54:24;;;;;;;15.57;13.63;;;20.30;99.90;;;;;;5067393;28;20229;-82
2022/07/22 11:56:53;;;;;;;15.10;13.52;;;20.60;99.90;;;;;;5065130;28;20205;-82
2022/07/22 11:59:22;;;;;;;16.17;13.55;;;21.00;99.90;;;;;;5055462;28;20198;-82
2022/07/22 12:01:50;;;;;;;15.77;12.90;;;21.20;99.90;;;;;;5036382;28;20571;-82
2022/07/22 12:04:19;;;;;;;15.02;13.23;;;21.30;99.90;;;;;;5042538;28;20229;-83
2022/07/22 12:06:48;;;;;;;15.60;13.00;;;21.30;99.90;;;;;;5041922;28;20217;-82
2022/07/22 12:09:17;;;;;;;13.95;12.02;;;21.70;99.90;;;;;;5044875;28;20234;-82
2022/07/22 12:11:46;;;;;;;14.65;11.73;;;21.90;99.90;;;;;;5053126;28;20205;-83
2022/07/22 12:14:15;;;;;;;15.18;11.93;;;21.70;99.90;;;;;;5043171;28;20214;-82
2022/07/22 12:16:53;;;;;;;13.50;11.52;;;21.40;99.90;;;;;;5041811;28;20206;-82
2022/07/22 12:19:21;;;;;;;16.02;13.00;;;21.60;99.90;;;;;;5057525;28;20190;-83
2022/07/22 12:22:15;;;;;;;17.38;13.48;;;21.90;99.90;;;;;;5056938;28;20194;-83
2022/07/22 12:25:44;;;;;;;17.10;13.48;;;22.10;99.90;;;;;;5046719;28;20226;-82
2022/07/22 12:28:12;;;;;;;16.55;13.88;;;21.80;99.90;;;;;;5043677;28;20205;-83
2022/07/22 12:30:40;;;;;;;14.95;13.35;;;21.80;99.90;;;;;;5060800;28;20217;-83
2022/07/22 12:33:15;;;;;;;15.73;13.02;;;21.90;99.90;;;;;;5068249;28;20190;-83
2022/07/22 12:35:44;;;;;;;15.75;13.63;;;22.10;99.90;;;;;;5067334;28;20217;-83
2022/07/22 12:38:11;;;;;;;16.58;14.40;;;22.00;99.90;;;;;;5066459;28;20198;-82
2022/07/22 12:40:39;;;;;;;19.25;14.48;;;21.70;99.90;;;;;;5066335;28;20229;-82
2022/07/22 12:43:09;;;;;;;17.20;14.18;;;21.60;99.90;;;;;;5064296;28;20204;-82
2022/07/22 12:45:38;;;;;;;15.02;13.18;;;21.80;99.90;;;;;;5048663;28;20228;-82
2022/07/22 12:48:09;;;;;;;17.23;12.68;;;22.00;99.90;;;;;;5068619;28;20217;-83
2022/07/22 12:50:40;;;;;;;15.98;13.18;;;22.20;99.90;;;;;;5067307;28;20221;-83
2022/07/22 12:53:09;;;;;;;15.52;13.23;;;22.10;99.90;;;;;;5050782;28;20198;-82
2022/07/22 12:55:39;;;;;;;16.85;13.90;;;22.40;99.90;;;;;;5059222;28;20213;-82
2022/07/22 12:58:07;;;;;;;16.65;13.65;;;22.20;99.90;;;;;;5051058;28;20205;-82
2022/07/22 13:00:37;;;;;;;16.63;12.65;;;22.10;99.90;;;;;;5048255;28;20202;-82
2022/07/22 13:03:06;;;;;;;15.77;13.50;;;22.10;99.90;;;;;;5058339;28;20209;-83